Draper, South Dakota
Current Conditions -  °F | °C
As of 6:53 PM on Tuesday 25 Nov 2014 (Local Time) from KPIR Reporting Station
Overcast Overcast  
Wind Chill: 26°   Ceiling: 3300
Heat Index: 34°   Visibility: 10mi
Dew Point: 32°   Wind: 10mph
Humidity: 92%   Direction: 270°W
Pressure: 29.78"   Gusts: NA
Location:  43.93°N, 100.54°W
Report Text: KPIR 260053Z AUTO 27009KT 10SM OVC033 01/00 A2978 RMK AO2 RAB2356E02SNE2356 SLP103 P0000 T00110000
Loading
Personal Weather Stations






























Interactive Weather Map New forecast layout! Learn more

10-Day Weather Forecast

Advertisements
Track Severe Weather on mobile